Antelope, CA

5:26 AM PST on January 30, 2015 (GMT -0800)
Firestone, Antelope, CA | Change Station
CLOSE
Current Station
Personal Weather Station
Location: Antelope, CA
Elevation: 155 ft
Nearby Weather Stations

Elev 155 ft 38.71 °N, 121.34 °W | Updated 1 minute ago

Clear
Clear
44.2 °F
Feels Like 44 °F
N
0.0
Wind Variable Wind from ESE
Gusts 0.0 mph

Today
High -- | Low -- °F
--% Chance of Precip.
Yesterday
High -- | Low -- °F
Precip. -- in
7:13 AM 5:24 PM
Waxing Gibbous, 82% visible
Pressure 30.03 in
Visibility 8.0 miles
Clouds Clear
Windchill 44 °F
Dew Point 43 °F
Humidity 94%
Rainfall 0.00 in
Snow Depth Not available.
UV 0 out of 12
Pollen 7.30 out of 12
Air Quality Not available.
Flu Activity Not available.
METAR KMCC 301315Z AUTO 00000KT 8SM CLR 05/04 A3003 RMK AO2

More Conditions Fewer Conditions

Pressure 30.03 in
Visibility 8.0 miles
Clouds Clear
Windchill 44 °F
Dew Point 43 °F
Humidity 94%
Rainfall 0.00 in
Snow Depth Not available.
UV 0 out of 12
Pollen 7.30 out of 12
Air Quality Not available.
Flu Activity Not available.
METAR KMCC 301315Z AUTO 00000KT 8SM CLR 05/04 A3003 RMK AO2

More Conditions Fewer Conditions

Nowcast | as of 5:07 am PST on January 30, 2015

Fog has formed again this morning in the northern San Joaquin Valley and in parts of the Delta and southern Sacramento Valley. Visibility has been reported at around one quarter mile in Stockton and Modesto and could become locally lower in some areas. Be watchful while driving this morning especially in the northern San Joaquin Valley. Slow down and use caution when entering areas of denser fog.

×

10-Day Weather Forecast

Almanac

Astronomy

Jan. 30, 2015 Rise Set
Actual Time
Civil Twilight
Nautical Twilight
Astronomical Twilight
Moon
Length of Visible Light
Length of Day
Tomorrow will be .
, % of the Moon is Illuminated

Today's Extremes

State Highs State Lows

Community

WunderPhotos

Upload Photos

1,791,749 photos uploaded!

WunderBlogs® & News

Nearby

Air Quality

  Air Quality AQ Index Pollutant
Not available.

Snow Depth

Station Depth Elevation

Earthquake Activity

City Distance Mag. Time & Date
Minimum magnitude displayed is 2.5.

Coastal Water Temperatures

Place Temperature

Nearby Weather Stations